sensor_id;sensor_type;location;lat;lon;timestamp;P1;durP1;ratioP1;P2;durP2;ratioP2
59239;SDS011;45010;53.640;10.578;2023-02-05T00:00:25;1.17;;;0.65;;
59239;SDS011;45010;53.640;10.578;2023-02-05T00:03:25;1.10;;;0.70;;
59239;SDS011;45010;53.640;10.578;2023-02-05T00:06:25;0.90;;;0.50;;
59239;SDS011;45010;53.640;10.578;2023-02-05T00:09:26;0.52;;;0.40;;
59239;SDS011;45010;53.640;10.578;2023-02-05T00:12:27;1.45;;;0.50;;
59239;SDS011;45010;53.640;10.578;2023-02-05T00:15:28;1.45;;;0.60;;
59239;SDS011;45010;53.640;10.578;2023-02-05T00:18:28;0.57;;;0.47;;
59239;SDS011;45010;53.640;10.578;2023-02-05T00:21:30;0.47;;;0.38;;
59239;SDS011;45010;53.640;10.578;2023-02-05T00:24:31;0.90;;;0.52;;
59239;SDS011;45010;53.640;10.578;2023-02-05T00:27:31;1.05;;;0.47;;
59239;SDS011;45010;53.640;10.578;2023-02-05T00:30:32;1.10;;;0.50;;
59239;SDS011;45010;53.640;10.578;2023-02-05T00:33:32;1.10;;;0.50;;
59239;SDS011;45010;53.640;10.578;2023-02-05T00:36:33;1.27;;;0.60;;
59239;SDS011;45010;53.640;10.578;2023-02-05T00:39:33;1.10;;;0.40;;
59239;SDS011;45010;53.640;10.578;2023-02-05T00:42:34;1.30;;;0.60;;
59239;SDS011;45010;53.640;10.578;2023-02-05T00:45:34;1.02;;;0.40;;
59239;SDS011;45010;53.640;10.578;2023-02-05T00:48:34;0.68;;;0.60;;
59239;SDS011;45010;53.640;10.578;2023-02-05T00:51:35;1.48;;;0.65;;
59239;SDS011;45010;53.640;10.578;2023-02-05T00:54:35;0.68;;;0.50;;
59239;SDS011;45010;53.640;10.578;2023-02-05T00:57:36;0.98;;;0.70;;
59239;SDS011;45010;53.640;10.578;2023-02-05T01:00:36;0.82;;;0.52;;
59239;SDS011;45010;53.640;10.578;2023-02-05T01:03:37;1.33;;;0.50;;
59239;SDS011;45010;53.640;10.578;2023-02-05T01:06:37;0.68;;;0.47;;
59239;SDS011;45010;53.640;10.578;2023-02-05T01:09:38;0.60;;;0.50;;
59239;SDS011;45010;53.640;10.578;2023-02-05T01:12:38;0.80;;;0.43;;
59239;SDS011;45010;53.640;10.578;2023-02-05T01:15:38;0.45;;;0.45;;
59239;SDS011;45010;53.640;10.578;2023-02-05T01:18:39;0.52;;;0.40;;
59239;SDS011;45010;53.640;10.578;2023-02-05T01:21:39;0.45;;;0.30;;
59239;SDS011;45010;53.640;10.578;2023-02-05T01:24:40;1.33;;;0.65;;
59239;SDS011;45010;53.640;10.578;2023-02-05T01:27:40;0.70;;;0.50;;
59239;SDS011;45010;53.640;10.578;2023-02-05T01:30:40;0.68;;;0.40;;
59239;SDS011;45010;53.640;10.578;2023-02-05T01:33:41;0.98;;;0.40;;
59239;SDS011;45010;53.640;10.578;2023-02-05T01:36:41;1.20;;;0.60;;
59239;SDS011;45010;53.640;10.578;2023-02-05T01:39:41;0.93;;;0.60;;
59239;SDS011;45010;53.640;10.578;2023-02-05T01:42:42;0.52;;;0.50;;
59239;SDS011;45010;53.640;10.578;2023-02-05T01:45:50;0.65;;;0.50;;
59239;SDS011;45010;53.640;10.578;2023-02-05T01:49:03;0.70;;;0.40;;
59239;SDS011;45010;53.640;10.578;2023-02-05T01:52:12;0.30;;;0.30;;
59239;SDS011;45010;53.640;10.578;2023-02-05T01:55:14;1.00;;;0.40;;
59239;SDS011;45010;53.640;10.578;2023-02-05T01:58:15;0.68;;;0.40;;
59239;SDS011;45010;53.640;10.578;2023-02-05T02:01:15;1.20;;;0.45;;
59239;SDS011;45010;53.640;10.578;2023-02-05T02:04:20;1.92;;;0.40;;
59239;SDS011;45010;53.640;10.578;2023-02-05T02:07:46;0.45;;;0.45;;
59239;SDS011;45010;53.640;10.578;2023-02-05T02:10:46;1.10;;;0.50;;
59239;SDS011;45010;53.640;10.578;2023-02-05T02:13:48;0.57;;;0.40;;
59239;SDS011;45010;53.640;10.578;2023-02-05T02:16:53;0.20;;;0.20;;
59239;SDS011;45010;53.640;10.578;2023-02-05T02:19:57;0.43;;;0.35;;
59239;SDS011;45010;53.640;10.578;2023-02-05T02:33:13;0.80;;;0.40;;
59239;SDS011;45010;53.640;10.578;2023-02-05T02:40:13;0.40;;;0.40;;
59239;SDS011;45010;53.640;10.578;2023-02-05T02:46:37;0.63;;;0.40;;
59239;SDS011;45010;53.640;10.578;2023-02-05T02:53:34;0.75;;;0.50;;
59239;SDS011;45010;53.640;10.578;2023-02-05T02:56:38;0.30;;;0.30;;
59239;SDS011;45010;53.640;10.578;2023-02-05T02:59:40;0.40;;;0.30;;
59239;SDS011;45010;53.640;10.578;2023-02-05T03:02:42;0.77;;;0.43;;
59239;SDS011;45010;53.640;10.578;2023-02-05T03:05:47;0.32;;;0.30;;
59239;SDS011;45010;53.640;10.578;2023-02-05T03:08:53;0.80;;;0.45;;
59239;SDS011;45010;53.640;10.578;2023-02-05T03:11:58;0.60;;;0.30;;
59239;SDS011;45010;53.640;10.578;2023-02-05T03:14:59;0.52;;;0.30;;
59239;SDS011;45010;53.640;10.578;2023-02-05T03:17:59;0.45;;;0.43;;
59239;SDS011;45010;53.640;10.578;2023-02-05T03:21:01;0.32;;;0.30;;
59239;SDS011;45010;53.640;10.578;2023-02-05T03:24:04;0.55;;;0.50;;
59239;SDS011;45010;53.640;10.578;2023-02-05T03:27:05;0.70;;;0.40;;
59239;SDS011;45010;53.640;10.578;2023-02-05T03:30:05;0.52;;;0.40;;
59239;SDS011;45010;53.640;10.578;2023-02-05T03:36:28;0.30;;;0.30;;
59239;SDS011;45010;53.640;10.578;2023-02-05T03:39:56;0.90;;;0.40;;
59239;SDS011;45010;53.640;10.578;2023-02-05T03:43:11;0.45;;;0.38;;
59239;SDS011;45010;53.640;10.578;2023-02-05T03:46:27;0.50;;;0.40;;
59239;SDS011;45010;53.640;10.578;2023-02-05T03:52:54;0.50;;;0.40;;
59239;SDS011;45010;53.640;10.578;2023-02-05T03:56:03;0.50;;;0.30;;
59239;SDS011;45010;53.640;10.578;2023-02-05T03:59:07;0.40;;;0.40;;
59239;SDS011;45010;53.640;10.578;2023-02-05T04:02:08;0.75;;;0.38;;
59239;SDS011;45010;53.640;10.578;2023-02-05T04:05:09;0.43;;;0.35;;
59239;SDS011;45010;53.640;10.578;2023-02-05T04:08:09;1.05;;;0.50;;
59239;SDS011;45010;53.640;10.578;2023-02-05T04:11:10;0.38;;;0.22;;
59239;SDS011;45010;53.640;10.578;2023-02-05T04:14:11;0.70;;;0.40;;
59239;SDS011;45010;53.640;10.578;2023-02-05T04:17:11;0.30;;;0.30;;
59239;SDS011;45010;53.640;10.578;2023-02-05T04:20:11;0.35;;;0.30;;
59239;SDS011;45010;53.640;10.578;2023-02-05T04:23:12;0.50;;;0.40;;
59239;SDS011;45010;53.640;10.578;2023-02-05T04:26:12;0.45;;;0.32;;
59239;SDS011;45010;53.640;10.578;2023-02-05T04:29:12;0.43;;;0.32;;
59239;SDS011;45010;53.640;10.578;2023-02-05T04:32:13;0.60;;;0.30;;
59239;SDS011;45010;53.640;10.578;2023-02-05T04:35:13;0.50;;;0.40;;
59239;SDS011;45010;53.640;10.578;2023-02-05T04:38:14;0.50;;;0.40;;
59239;SDS011;45010;53.640;10.578;2023-02-05T04:41:14;0.45;;;0.30;;
59239;SDS011;45010;53.640;10.578;2023-02-05T04:44:14;0.30;;;0.30;;
59239;SDS011;45010;53.640;10.578;2023-02-05T04:47:15;0.40;;;0.32;;
59239;SDS011;45010;53.640;10.578;2023-02-05T04:50:15;0.40;;;0.30;;
59239;SDS011;45010;53.640;10.578;2023-02-05T04:53:16;0.30;;;0.30;;
59239;SDS011;45010;53.640;10.578;2023-02-05T04:56:17;0.30;;;0.30;;
59239;SDS011;45010;53.640;10.578;2023-02-05T04:59:17;0.40;;;0.40;;
59239;SDS011;45010;53.640;10.578;2023-02-05T05:02:17;0.35;;;0.30;;
59239;SDS011;45010;53.640;10.578;2023-02-05T05:05:18;0.45;;;0.30;;
59239;SDS011;45010;53.640;10.578;2023-02-05T05:08:18;0.38;;;0.30;;
59239;SDS011;45010;53.640;10.578;2023-02-05T05:11:19;0.63;;;0.40;;
59239;SDS011;45010;53.640;10.578;2023-02-05T05:14:19;0.40;;;0.30;;
59239;SDS011;45010;53.640;10.578;2023-02-05T05:17:19;0.50;;;0.30;;
59239;SDS011;45010;53.640;10.578;2023-02-05T05:20:20;0.30;;;0.30;;
59239;SDS011;45010;53.640;10.578;2023-02-05T05:23:20;0.30;;;0.30;;
59239;SDS011;45010;53.640;10.578;2023-02-05T05:26:20;0.30;;;0.30;;
59239;SDS011;45010;53.640;10.578;2023-02-05T05:29:21;0.32;;;0.32;;
59239;SDS011;45010;53.640;10.578;2023-02-05T05:32:21;0.30;;;0.30;;
59239;SDS011;45010;53.640;10.578;2023-02-05T05:35:21;0.30;;;0.30;;
59239;SDS011;45010;53.640;10.578;2023-02-05T05:38:22;0.68;;;0.38;;
59239;SDS011;45010;53.640;10.578;2023-02-05T05:41:22;0.30;;;0.30;;
59239;SDS011;45010;53.640;10.578;2023-02-05T05:44:42;0.40;;;0.40;;
59239;SDS011;45010;53.640;10.578;2023-02-05T05:47:42;0.30;;;0.30;;
59239;SDS011;45010;53.640;10.578;2023-02-05T05:50:43;0.35;;;0.30;;
59239;SDS011;45010;53.640;10.578;2023-02-05T05:53:43;0.95;;;0.30;;
59239;SDS011;45010;53.640;10.578;2023-02-05T05:56:44;0.28;;;0.28;;
59239;SDS011;45010;53.640;10.578;2023-02-05T05:59:44;0.50;;;0.28;;
59239;SDS011;45010;53.640;10.578;2023-02-05T06:02:45;0.40;;;0.40;;
59239;SDS011;45010;53.640;10.578;2023-02-05T06:05:45;0.50;;;0.40;;
59239;SDS011;45010;53.640;10.578;2023-02-05T06:08:45;0.40;;;0.40;;
59239;SDS011;45010;53.640;10.578;2023-02-05T06:11:49;0.30;;;0.20;;
59239;SDS011;45010;53.640;10.578;2023-02-05T06:14:49;0.35;;;0.30;;
59239;SDS011;45010;53.640;10.578;2023-02-05T06:17:50;0.20;;;0.20;;
59239;SDS011;45010;53.640;10.578;2023-02-05T06:20:50;0.47;;;0.30;;
59239;SDS011;45010;53.640;10.578;2023-02-05T06:23:50;0.52;;;0.30;;
59239;SDS011;45010;53.640;10.578;2023-02-05T06:26:51;0.20;;;0.20;;
59239;SDS011;45010;53.640;10.578;2023-02-05T06:29:51;0.20;;;0.20;;
59239;SDS011;45010;53.640;10.578;2023-02-05T06:32:51;0.30;;;0.30;;
59239;SDS011;45010;53.640;10.578;2023-02-05T06:35:51;0.43;;;0.40;;
59239;SDS011;45010;53.640;10.578;2023-02-05T06:38:52;0.77;;;0.30;;
59239;SDS011;45010;53.640;10.578;2023-02-05T06:41:52;0.32;;;0.30;;
59239;SDS011;45010;53.640;10.578;2023-02-05T06:44:53;0.40;;;0.30;;
59239;SDS011;45010;53.640;10.578;2023-02-05T06:47:53;0.30;;;0.30;;
59239;SDS011;45010;53.640;10.578;2023-02-05T06:50:55;0.20;;;0.20;;
59239;SDS011;45010;53.640;10.578;2023-02-05T06:53:55;0.30;;;0.30;;
59239;SDS011;45010;53.640;10.578;2023-02-05T06:56:56;0.28;;;0.20;;
59239;SDS011;45010;53.640;10.578;2023-02-05T06:59:57;0.40;;;0.20;;
59239;SDS011;45010;53.640;10.578;2023-02-05T07:02:57;0.35;;;0.25;;
59239;SDS011;45010;53.640;10.578;2023-02-05T07:06:00;0.30;;;0.30;;
59239;SDS011;45010;53.640;10.578;2023-02-05T07:09:02;0.30;;;0.30;;
59239;SDS011;45010;53.640;10.578;2023-02-05T07:12:03;0.55;;;0.15;;
59239;SDS011;45010;53.640;10.578;2023-02-05T07:15:03;0.30;;;0.30;;
59239;SDS011;45010;53.640;10.578;2023-02-05T07:18:04;0.57;;;0.30;;
59239;SDS011;45010;53.640;10.578;2023-02-05T07:21:06;0.38;;;0.30;;
59239;SDS011;45010;53.640;10.578;2023-02-05T07:24:08;0.63;;;0.30;;
59239;SDS011;45010;53.640;10.578;2023-02-05T07:27:08;0.20;;;0.20;;
59239;SDS011;45010;53.640;10.578;2023-02-05T07:30:08;0.50;;;0.35;;
59239;SDS011;45010;53.640;10.578;2023-02-05T07:33:09;0.55;;;0.30;;
59239;SDS011;45010;53.640;10.578;2023-02-05T07:36:10;0.85;;;0.40;;
59239;SDS011;45010;53.640;10.578;2023-02-05T07:39:12;0.28;;;0.20;;
59239;SDS011;45010;53.640;10.578;2023-02-05T07:42:13;0.30;;;0.30;;
59239;SDS011;45010;53.640;10.578;2023-02-05T07:45:13;0.25;;;0.25;;
59239;SDS011;45010;53.640;10.578;2023-02-05T07:48:13;0.40;;;0.30;;
59239;SDS011;45010;53.640;10.578;2023-02-05T07:51:23;0.55;;;0.30;;
59239;SDS011;45010;53.640;10.578;2023-02-05T07:54:24;0.65;;;0.50;;
59239;SDS011;45010;53.640;10.578;2023-02-05T07:57:24;1.30;;;0.35;;
59239;SDS011;45010;53.640;10.578;2023-02-05T08:00:25;0.75;;;0.40;;
59239;SDS011;45010;53.640;10.578;2023-02-05T08:03:26;0.60;;;0.52;;
59239;SDS011;45010;53.640;10.578;2023-02-05T08:06:27;0.40;;;0.35;;
59239;SDS011;45010;53.640;10.578;2023-02-05T08:09:27;0.93;;;0.47;;
59239;SDS011;45010;53.640;10.578;2023-02-05T08:12:27;1.30;;;0.40;;
59239;SDS011;45010;53.640;10.578;2023-02-05T08:15:28;0.30;;;0.30;;
59239;SDS011;45010;53.640;10.578;2023-02-05T08:18:28;0.82;;;0.50;;
59239;SDS011;45010;53.640;10.578;2023-02-05T08:21:28;0.50;;;0.40;;
59239;SDS011;45010;53.640;10.578;2023-02-05T08:24:30;0.70;;;0.50;;
59239;SDS011;45010;53.640;10.578;2023-02-05T08:27:31;0.45;;;0.40;;
59239;SDS011;45010;53.640;10.578;2023-02-05T08:30:32;0.88;;;0.40;;
59239;SDS011;45010;53.640;10.578;2023-02-05T08:33:32;1.45;;;0.40;;
59239;SDS011;45010;53.640;10.578;2023-02-05T08:36:32;0.60;;;0.50;;
59239;SDS011;45010;53.640;10.578;2023-02-05T08:39:33;1.10;;;0.50;;
59239;SDS011;45010;53.640;10.578;2023-02-05T08:42:33;3.28;;;0.73;;
59239;SDS011;45010;53.640;10.578;2023-02-05T08:45:34;2.22;;;0.73;;
59239;SDS011;45010;53.640;10.578;2023-02-05T08:48:34;1.85;;;0.60;;
59239;SDS011;45010;53.640;10.578;2023-02-05T08:51:35;2.25;;;0.60;;
59239;SDS011;45010;53.640;10.578;2023-02-05T08:54:35;1.30;;;0.50;;
59239;SDS011;45010;53.640;10.578;2023-02-05T08:57:35;1.90;;;0.60;;
59239;SDS011;45010;53.640;10.578;2023-02-05T09:00:36;0.40;;;0.40;;
59239;SDS011;45010;53.640;10.578;2023-02-05T09:03:39;3.17;;;0.90;;
59239;SDS011;45010;53.640;10.578;2023-02-05T09:06:39;1.35;;;0.60;;
59239;SDS011;45010;53.640;10.578;2023-02-05T09:09:40;3.65;;;1.02;;
59239;SDS011;45010;53.640;10.578;2023-02-05T09:12:40;2.08;;;0.85;;
59239;SDS011;45010;53.640;10.578;2023-02-05T09:15:41;3.55;;;0.80;;
59239;SDS011;45010;53.640;10.578;2023-02-05T09:18:42;4.00;;;0.77;;
59239;SDS011;45010;53.640;10.578;2023-02-05T09:21:42;1.75;;;0.85;;
59239;SDS011;45010;53.640;10.578;2023-02-05T09:24:43;3.08;;;0.90;;
59239;SDS011;45010;53.640;10.578;2023-02-05T09:27:43;3.55;;;0.70;;
59239;SDS011;45010;53.640;10.578;2023-02-05T09:30:44;2.10;;;0.88;;
59239;SDS011;45010;53.640;10.578;2023-02-05T09:33:45;2.22;;;1.10;;
59239;SDS011;45010;53.640;10.578;2023-02-05T09:36:45;3.15;;;0.90;;
59239;SDS011;45010;53.640;10.578;2023-02-05T09:39:45;2.63;;;0.98;;
59239;SDS011;45010;53.640;10.578;2023-02-05T09:49:21;4.03;;;1.20;;
59239;SDS011;45010;53.640;10.578;2023-02-05T09:52:35;4.03;;;1.10;;
59239;SDS011;45010;53.640;10.578;2023-02-05T09:55:38;4.68;;;1.17;;
59239;SDS011;45010;53.640;10.578;2023-02-05T09:58:45;3.15;;;1.30;;
59239;SDS011;45010;53.640;10.578;2023-02-05T10:01:50;4.45;;;1.35;;
59239;SDS011;45010;53.640;10.578;2023-02-05T10:04:52;3.72;;;1.30;;
59239;SDS011;45010;53.640;10.578;2023-02-05T10:11:32;1.52;;;0.82;;
59239;SDS011;45010;53.640;10.578;2023-02-05T10:14:43;3.03;;;0.60;;
59239;SDS011;45010;53.640;10.578;2023-02-05T10:18:19;2.53;;;0.95;;
59239;SDS011;45010;53.640;10.578;2023-02-05T10:21:55;3.25;;;0.73;;
59239;SDS011;45010;53.640;10.578;2023-02-05T10:28:17;2.28;;;0.60;;
59239;SDS011;45010;53.640;10.578;2023-02-05T10:31:40;0.65;;;0.50;;
59239;SDS011;45010;53.640;10.578;2023-02-05T10:34:54;1.60;;;0.50;;
59239;SDS011;45010;53.640;10.578;2023-02-05T10:37:57;3.17;;;0.77;;
59239;SDS011;45010;53.640;10.578;2023-02-05T10:40:59;3.00;;;0.70;;
59239;SDS011;45010;53.640;10.578;2023-02-05T10:50:47;2.72;;;0.90;;
59239;SDS011;45010;53.640;10.578;2023-02-05T10:53:52;0.93;;;0.70;;
59239;SDS011;45010;53.640;10.578;2023-02-05T10:56:53;0.88;;;0.43;;
59239;SDS011;45010;53.640;10.578;2023-02-05T10:59:55;1.85;;;0.60;;
59239;SDS011;45010;53.640;10.578;2023-02-05T11:02:58;0.75;;;0.55;;
59239;SDS011;45010;53.640;10.578;2023-02-05T11:05:59;0.63;;;0.57;;
59239;SDS011;45010;53.640;10.578;2023-02-05T11:09:01;2.75;;;0.75;;
59239;SDS011;45010;53.640;10.578;2023-02-05T11:12:04;0.80;;;0.55;;
59239;SDS011;45010;53.640;10.578;2023-02-05T11:15:17;1.40;;;0.70;;
59239;SDS011;45010;53.640;10.578;2023-02-05T11:18:26;1.63;;;0.70;;
59239;SDS011;45010;53.640;10.578;2023-02-05T11:21:44;0.45;;;0.40;;
59239;SDS011;45010;53.640;10.578;2023-02-05T11:24:45;0.73;;;0.50;;
59239;SDS011;45010;53.640;10.578;2023-02-05T11:27:54;0.57;;;0.40;;
59239;SDS011;45010;53.640;10.578;2023-02-05T11:30:56;2.40;;;0.70;;
59239;SDS011;45010;53.640;10.578;2023-02-05T11:34:16;0.98;;;0.60;;
59239;SDS011;45010;53.640;10.578;2023-02-05T11:37:19;1.00;;;0.50;;
59239;SDS011;45010;53.640;10.578;2023-02-05T11:40:26;1.25;;;0.70;;
59239;SDS011;45010;53.640;10.578;2023-02-05T11:43:33;1.17;;;0.60;;
59239;SDS011;45010;53.640;10.578;2023-02-05T11:46:36;1.30;;;0.65;;
59239;SDS011;45010;53.640;10.578;2023-02-05T11:49:43;1.67;;;0.75;;
59239;SDS011;45010;53.640;10.578;2023-02-05T11:52:49;2.15;;;0.60;;
59239;SDS011;45010;53.640;10.578;2023-02-05T11:55:55;2.58;;;0.60;;
59239;SDS011;45010;53.640;10.578;2023-02-05T12:05:30;1.17;;;0.60;;
59239;SDS011;45010;53.640;10.578;2023-02-05T12:08:47;1.17;;;0.68;;
59239;SDS011;45010;53.640;10.578;2023-02-05T12:15:10;0.93;;;0.50;;
59239;SDS011;45010;53.640;10.578;2023-02-05T12:18:25;0.73;;;0.50;;
59239;SDS011;45010;53.640;10.578;2023-02-05T12:24:56;0.60;;;0.60;;
59239;SDS011;45010;53.640;10.578;2023-02-05T12:34:51;0.88;;;0.60;;
59239;SDS011;45010;53.640;10.578;2023-02-05T12:41:32;0.80;;;0.52;;
59239;SDS011;45010;53.640;10.578;2023-02-05T12:58:00;1.33;;;0.60;;
59239;SDS011;45010;53.640;10.578;2023-02-05T13:01:07;1.55;;;0.55;;
59239;SDS011;45010;53.640;10.578;2023-02-05T13:04:21;1.23;;;0.70;;
59239;SDS011;45010;53.640;10.578;2023-02-05T13:07:31;0.70;;;0.52;;
59239;SDS011;45010;53.640;10.578;2023-02-05T13:10:38;1.88;;;0.60;;
59239;SDS011;45010;53.640;10.578;2023-02-05T13:13:49;0.75;;;0.50;;
59239;SDS011;45010;53.640;10.578;2023-02-05T13:16:58;3.05;;;0.60;;
59239;SDS011;45010;53.640;10.578;2023-02-05T13:20:04;1.85;;;0.60;;
59239;SDS011;45010;53.640;10.578;2023-02-05T13:23:14;0.60;;;0.57;;
59239;SDS011;45010;53.640;10.578;2023-02-05T13:26:39;0.95;;;0.70;;
59239;SDS011;45010;53.640;10.578;2023-02-05T13:30:02;0.55;;;0.50;;
59239;SDS011;45010;53.640;10.578;2023-02-05T13:33:04;0.63;;;0.50;;
59239;SDS011;45010;53.640;10.578;2023-02-05T13:36:24;1.33;;;0.60;;
59239;SDS011;45010;53.640;10.578;2023-02-05T13:39:46;1.08;;;0.70;;
59239;SDS011;45010;53.640;10.578;2023-02-05T13:49:28;1.35;;;0.90;;
59239;SDS011;45010;53.640;10.578;2023-02-05T13:56:22;1.00;;;0.73;;
59239;SDS011;45010;53.640;10.578;2023-02-05T13:59:38;1.73;;;0.60;;
59239;SDS011;45010;53.640;10.578;2023-02-05T14:02:43;0.95;;;0.70;;
59239;SDS011;45010;53.640;10.578;2023-02-05T14:05:47;2.05;;;0.85;;
59239;SDS011;45010;53.640;10.578;2023-02-05T14:08:48;0.90;;;0.70;;
59239;SDS011;45010;53.640;10.578;2023-02-05T14:11:56;1.30;;;0.80;;
59239;SDS011;45010;53.640;10.578;2023-02-05T14:15:44;1.60;;;0.70;;
59239;SDS011;45010;53.640;10.578;2023-02-05T14:24:46;1.42;;;0.60;;
59239;SDS011;45010;53.640;10.578;2023-02-05T14:27:49;1.20;;;0.70;;
59239;SDS011;45010;53.640;10.578;2023-02-05T14:30:57;1.88;;;0.73;;
59239;SDS011;45010;53.640;10.578;2023-02-05T14:34:48;0.82;;;0.70;;
59239;SDS011;45010;53.640;10.578;2023-02-05T14:37:36;1.58;;;0.68;;
59239;SDS011;45010;53.640;10.578;2023-02-05T14:40:38;2.28;;;0.80;;
59239;SDS011;45010;53.640;10.578;2023-02-05T14:43:40;1.25;;;0.60;;
59239;SDS011;45010;53.640;10.578;2023-02-05T14:50:07;1.05;;;0.63;;
59239;SDS011;45010;53.640;10.578;2023-02-05T14:53:15;1.95;;;0.70;;
59239;SDS011;45010;53.640;10.578;2023-02-05T14:56:29;2.33;;;0.70;;
59239;SDS011;45010;53.640;10.578;2023-02-05T14:59:38;1.33;;;0.65;;
59239;SDS011;45010;53.640;10.578;2023-02-05T15:06:14;1.08;;;0.75;;
59239;SDS011;45010;53.640;10.578;2023-02-05T15:09:17;0.70;;;0.70;;
59239;SDS011;45010;53.640;10.578;2023-02-05T15:12:49;2.60;;;0.80;;
59239;SDS011;45010;53.640;10.578;2023-02-05T15:19:10;1.40;;;0.70;;
59239;SDS011;45010;53.640;10.578;2023-02-05T15:22:21;1.13;;;0.65;;
59239;SDS011;45010;53.640;10.578;2023-02-05T15:25:38;12.25;;;1.95;;
59239;SDS011;45010;53.640;10.578;2023-02-05T15:29:03;1.73;;;0.90;;
59239;SDS011;45010;53.640;10.578;2023-02-05T15:32:12;3.33;;;0.70;;
59239;SDS011;45010;53.640;10.578;2023-02-05T15:35:18;1.42;;;0.80;;
59239;SDS011;45010;53.640;10.578;2023-02-05T15:38:38;1.83;;;0.95;;
59239;SDS011;45010;53.640;10.578;2023-02-05T15:41:45;1.30;;;0.68;;
59239;SDS011;45010;53.640;10.578;2023-02-05T15:44:46;1.15;;;0.77;;
59239;SDS011;45010;53.640;10.578;2023-02-05T15:51:22;1.40;;;0.57;;
59239;SDS011;45010;53.640;10.578;2023-02-05T15:54:27;1.70;;;0.80;;
59239;SDS011;45010;53.640;10.578;2023-02-05T15:57:30;1.67;;;0.77;;
59239;SDS011;45010;53.640;10.578;2023-02-05T16:00:32;0.85;;;0.80;;
59239;SDS011;45010;53.640;10.578;2023-02-05T16:03:36;1.40;;;0.65;;
59239;SDS011;45010;53.640;10.578;2023-02-05T16:06:37;0.90;;;0.65;;
59239;SDS011;45010;53.640;10.578;2023-02-05T16:09:38;1.00;;;0.80;;
59239;SDS011;45010;53.640;10.578;2023-02-05T16:16:08;1.25;;;0.73;;
59239;SDS011;45010;53.640;10.578;2023-02-05T16:19:18;0.93;;;0.77;;
59239;SDS011;45010;53.640;10.578;2023-02-05T16:22:24;1.10;;;0.80;;
59239;SDS011;45010;53.640;10.578;2023-02-05T16:28:43;0.73;;;0.60;;
59239;SDS011;45010;53.640;10.578;2023-02-05T16:35:32;0.82;;;0.70;;
59239;SDS011;45010;53.640;10.578;2023-02-05T16:38:37;1.45;;;0.70;;
59239;SDS011;45010;53.640;10.578;2023-02-05T16:41:39;1.83;;;1.08;;
59239;SDS011;45010;53.640;10.578;2023-02-05T16:44:42;4.72;;;1.08;;
59239;SDS011;45010;53.640;10.578;2023-02-05T16:48:32;4.25;;;0.88;;
59239;SDS011;45010;53.640;10.578;2023-02-05T16:54:32;2.30;;;0.93;;
59239;SDS011;45010;53.640;10.578;2023-02-05T16:57:34;3.00;;;1.10;;
59239;SDS011;45010;53.640;10.578;2023-02-05T17:00:37;2.50;;;1.20;;
59239;SDS011;45010;53.640;10.578;2023-02-05T17:03:38;1.75;;;1.20;;
59239;SDS011;45010;53.640;10.578;2023-02-05T17:06:40;6.05;;;1.27;;
59239;SDS011;45010;53.640;10.578;2023-02-05T17:09:40;3.53;;;1.40;;
59239;SDS011;45010;53.640;10.578;2023-02-05T17:12:44;4.30;;;1.83;;
59239;SDS011;45010;53.640;10.578;2023-02-05T17:15:46;5.00;;;1.50;;
59239;SDS011;45010;53.640;10.578;2023-02-05T17:19:22;1.88;;;1.20;;
59239;SDS011;45010;53.640;10.578;2023-02-05T17:22:39;4.18;;;1.35;;
59239;SDS011;45010;53.640;10.578;2023-02-05T17:25:59;2.13;;;1.30;;
59239;SDS011;45010;53.640;10.578;2023-02-05T17:29:00;3.70;;;1.50;;
59239;SDS011;45010;53.640;10.578;2023-02-05T17:32:03;2.22;;;1.20;;
59239;SDS011;45010;53.640;10.578;2023-02-05T17:35:11;3.53;;;1.15;;
59239;SDS011;45010;53.640;10.578;2023-02-05T17:38:15;1.85;;;1.20;;
59239;SDS011;45010;53.640;10.578;2023-02-05T17:41:17;1.95;;;1.00;;
59239;SDS011;45010;53.640;10.578;2023-02-05T17:44:39;4.18;;;1.58;;
59239;SDS011;45010;53.640;10.578;2023-02-05T17:47:39;3.45;;;0.98;;
59239;SDS011;45010;53.640;10.578;2023-02-05T17:50:40;3.05;;;1.50;;
59239;SDS011;45010;53.640;10.578;2023-02-05T17:53:40;2.40;;;1.45;;
59239;SDS011;45010;53.640;10.578;2023-02-05T17:56:41;2.38;;;1.00;;
59239;SDS011;45010;53.640;10.578;2023-02-05T17:59:43;6.22;;;1.58;;
59239;SDS011;45010;53.640;10.578;2023-02-05T18:02:44;3.72;;;1.48;;
59239;SDS011;45010;53.640;10.578;2023-02-05T18:05:45;2.72;;;1.30;;
59239;SDS011;45010;53.640;10.578;2023-02-05T18:08:46;3.95;;;1.50;;
59239;SDS011;45010;53.640;10.578;2023-02-05T18:11:46;3.17;;;1.23;;
59239;SDS011;45010;53.640;10.578;2023-02-05T18:14:46;2.55;;;1.30;;
59239;SDS011;45010;53.640;10.578;2023-02-05T18:17:46;3.28;;;1.58;;
59239;SDS011;45010;53.640;10.578;2023-02-05T18:20:47;3.15;;;1.30;;
59239;SDS011;45010;53.640;10.578;2023-02-05T18:23:47;2.22;;;1.30;;
59239;SDS011;45010;53.640;10.578;2023-02-05T18:26:49;3.28;;;1.83;;
59239;SDS011;45010;53.640;10.578;2023-02-05T18:29:51;1.73;;;1.20;;
59239;SDS011;45010;53.640;10.578;2023-02-05T18:32:52;3.70;;;2.05;;
59239;SDS011;45010;53.640;10.578;2023-02-05T18:35:52;3.33;;;1.38;;
59239;SDS011;45010;53.640;10.578;2023-02-05T18:38:54;3.97;;;1.70;;
59239;SDS011;45010;53.640;10.578;2023-02-05T18:41:55;2.65;;;1.70;;
59239;SDS011;45010;53.640;10.578;2023-02-05T18:44:55;5.40;;;1.52;;
59239;SDS011;45010;53.640;10.578;2023-02-05T18:47:56;2.25;;;1.40;;
59239;SDS011;45010;53.640;10.578;2023-02-05T18:50:56;4.25;;;1.52;;
59239;SDS011;45010;53.640;10.578;2023-02-05T18:53:56;3.53;;;1.60;;
59239;SDS011;45010;53.640;10.578;2023-02-05T18:56:57;2.50;;;1.13;;
59239;SDS011;45010;53.640;10.578;2023-02-05T18:59:57;4.07;;;1.58;;
59239;SDS011;45010;53.640;10.578;2023-02-05T19:02:58;3.08;;;1.40;;
59239;SDS011;45010;53.640;10.578;2023-02-05T19:06:02;4.85;;;1.70;;
59239;SDS011;45010;53.640;10.578;2023-02-05T19:09:03;3.72;;;1.35;;
59239;SDS011;45010;53.640;10.578;2023-02-05T19:12:04;2.17;;;1.30;;
59239;SDS011;45010;53.640;10.578;2023-02-05T19:15:04;5.65;;;1.33;;
59239;SDS011;45010;53.640;10.578;2023-02-05T19:18:05;3.38;;;1.45;;
59239;SDS011;45010;53.640;10.578;2023-02-05T19:21:07;2.95;;;1.40;;
59239;SDS011;45010;53.640;10.578;2023-02-05T19:24:09;2.75;;;1.50;;
59239;SDS011;45010;53.640;10.578;2023-02-05T19:27:11;2.92;;;1.30;;
59239;SDS011;45010;53.640;10.578;2023-02-05T19:30:11;3.35;;;1.40;;
59239;SDS011;45010;53.640;10.578;2023-02-05T19:33:13;4.63;;;1.27;;
59239;SDS011;45010;53.640;10.578;2023-02-05T19:36:13;3.70;;;1.73;;
59239;SDS011;45010;53.640;10.578;2023-02-05T19:39:13;3.45;;;1.17;;
59239;SDS011;45010;53.640;10.578;2023-02-05T19:42:14;1.88;;;1.17;;
59239;SDS011;45010;53.640;10.578;2023-02-05T19:45:14;3.60;;;1.40;;
59239;SDS011;45010;53.640;10.578;2023-02-05T19:48:15;2.50;;;1.40;;
59239;SDS011;45010;53.640;10.578;2023-02-05T19:51:15;2.42;;;1.25;;
59239;SDS011;45010;53.640;10.578;2023-02-05T19:54:16;2.17;;;1.30;;
59239;SDS011;45010;53.640;10.578;2023-02-05T19:57:17;2.40;;;1.50;;
59239;SDS011;45010;53.640;10.578;2023-02-05T20:00:17;3.72;;;1.38;;
59239;SDS011;45010;53.640;10.578;2023-02-05T20:03:18;2.78;;;1.40;;
59239;SDS011;45010;53.640;10.578;2023-02-05T20:06:19;2.28;;;1.63;;
59239;SDS011;45010;53.640;10.578;2023-02-05T20:09:20;2.10;;;1.17;;
59239;SDS011;45010;53.640;10.578;2023-02-05T20:12:20;1.60;;;1.30;;
59239;SDS011;45010;53.640;10.578;2023-02-05T20:15:21;4.57;;;1.35;;
59239;SDS011;45010;53.640;10.578;2023-02-05T20:18:21;1.67;;;1.20;;